This is the latest recevied weather packets stored in our database for station/object JF1AJE-13. If no packets are shown the sender has not sent any weather packets the latest 10 day(s).
| Time | Temp. | Humidity | Pressure | Rain* | Wind** | Luminosity | Snow |
|---|---|---|---|---|---|---|---|
| 1787889763 | 35° C | 34% | 1002.2 hPa | 0 mm | - | - | - |
| 1787881365 | 32.78° C | 39% | 1003.2 hPa | 0 mm | - | - | - |
| 1787878963 | 31.67° C | 49% | 1003.2 hPa | 0 mm | - | - | - |
| 1787876564 | 29.44° C | 59% | 1003.6 hPa | 0 mm | - | - | - |
| 1787874163 | 27.22° C | 65% | 1003.4 hPa | 0 mm | - | - | - |
| 1787872965 | 26.11° C | 69% | 1003.4 hPa | 0 mm | - | - | - |
| 1787871764 | 25° C | 74% | 1003.3 hPa | 0 mm | - | - | - |
| 1787870564 | 24.44° C | 77% | 1003.4 hPa | 0 mm | - | - | - |
| 1787865221 | 23.33° C | 84% | 1003 hPa | 0 mm | - | - | - |
| 1787864021 | 23.33° C | 84% | 1003 hPa | 0 mm | - | - | - |
| 1787862821 | 22.78° C | 85% | 1002.9 hPa | 0 mm | - | - | - |
| 1787861622 | 22.78° C | 85% | 1003 hPa | 0 mm | - | - | - |
| 1787860421 | 22.78° C | 85% | 1003.3 hPa | 0 mm | - | - | - |
| 1787859222 | 23.33° C | 86% | 1003 hPa | 0 mm | - | - | - |
| 1787858021 | 23.33° C | 85% | 1003.4 hPa | 0 mm | - | - | - |
| 1787856821 | 23.33° C | 85% | 1003.2 hPa | 0 mm | - | - | - |
| 1787855621 | 23.33° C | 85% | 1003.4 hPa | 0 mm | - | - | - |
| 1787854421 | 23.33° C | 85% | 1003.3 hPa | 0 mm | - | - | - |
| 1787853221 | 23.33° C | 84% | 1003.1 hPa | 0 mm | - | - | - |
| 1787852021 | 23.33° C | 84% | 1003.2 hPa | 0 mm | - | - | - |
| 1787850822 | 23.33° C | 84% | 1003.1 hPa | 0 mm | - | - | - |
| 1787849622 | 23.33° C | 84% | 1002.9 hPa | 0 mm | - | - | - |
| 1787848422 | 23.33° C | 83% | 1003 hPa | 0 mm | - | - | - |
| 1787847221 | 23.33° C | 83% | 1002.7 hPa | 0 mm | - | - | - |
| 1787846021 | 23.33° C | 83% | 1002.8 hPa | 0 mm | - | - | - |
* Rain latest hour (hover to see other rain measurements)
** Current wind speed in m/s (hover to see current wind gust speed)